Time;durP1;ratioP1;P1;durP2;ratioP2;P2;SDS_P1;SDS_P2;PMS_P1;PMS_P2;Temp;Humidity;BMP_temperature;BMP_pressure;BME280_temperature;BME280_humidity;BME280_pressure;Samples;Min_cycle;Max_cycle;Signal;HPM_P1;HPM_P2
2023/06/25 00:00:19;;;;;;;11.23;8.00;;;19.10;99.90;;;;;;5003035;28;20497;-71
2023/06/25 00:02:46;;;;;;;11.33;9.57;;;19.10;99.90;;;;;;5002084;28;20536;-71
2023/06/25 00:05:12;;;;;;;10.60;7.63;;;19.00;99.90;;;;;;5007626;28;20458;-71
2023/06/25 00:07:40;;;;;;;8.83;7.93;;;19.00;99.90;;;;;;5003595;28;20458;-71
2023/06/25 00:10:07;;;;;;;14.63;9.77;;;19.00;99.90;;;;;;5002312;28;20466;-71
2023/06/25 00:12:34;;;;;;;9.40;8.50;;;18.90;99.90;;;;;;5009878;28;20474;-71
2023/06/25 00:15:00;;;;;;;9.03;8.10;;;18.90;99.90;;;;;;5008726;28;20454;-71
2023/06/25 00:17:28;;;;;;;14.77;9.23;;;18.90;99.90;;;;;;5009954;28;20490;-71
2023/06/25 00:19:56;;;;;;;10.87;9.30;;;18.80;99.90;;;;;;5005091;28;20513;-71
2023/06/25 00:22:22;;;;;;;12.00;8.10;;;18.80;99.90;;;;;;5009619;28;21003;-71
2023/06/25 00:24:49;;;;;;;9.17;8.20;;;18.80;99.90;;;;;;5010297;28;20454;-71
2023/06/25 00:27:16;;;;;;;11.23;9.10;;;18.80;99.90;;;;;;5009064;28;20942;-71
2023/06/25 00:29:43;;;;;;;9.47;8.50;;;18.70;99.90;;;;;;5008008;28;20485;-71
2023/06/25 00:32:09;;;;;;;13.00;8.60;;;18.70;99.90;;;;;;5007139;28;20462;-71
2023/06/25 00:34:41;;;;;;;11.40;9.10;;;18.70;99.90;;;;;;4996812;28;20474;-71
2023/06/25 00:37:16;;;;;;;11.50;9.07;;;18.60;99.90;;;;;;4998716;28;20491;-71
2023/06/25 00:39:44;;;;;;;10.90;8.10;;;18.60;99.90;;;;;;5009775;28;20462;-71
2023/06/25 00:42:10;;;;;;;11.17;9.47;;;18.50;99.90;;;;;;5000980;28;20799;-71
2023/06/25 00:44:40;;;;;;;11.90;9.00;;;18.40;99.90;;;;;;5009368;28;20501;-71
2023/06/25 00:47:08;;;;;;;11.70;9.40;;;18.40;99.90;;;;;;5009418;28;20550;-71
2023/06/25 00:49:34;;;;;;;9.23;8.33;;;18.40;99.90;;;;;;5009347;28;20458;-71
2023/06/25 00:52:08;;;;;;;11.80;9.67;;;18.30;99.90;;;;;;5009453;28;20509;-71
2023/06/25 00:54:37;;;;;;;11.57;9.53;;;18.30;99.90;;;;;;5008765;28;20470;-71
2023/06/25 00:57:04;;;;;;;11.30;9.23;;;18.30;99.90;;;;;;5001244;28;20508;-71
2023/06/25 00:59:31;;;;;;;13.37;9.40;;;18.20;99.90;;;;;;5002038;28;20459;-71
2023/06/25 01:02:06;;;;;;;9.67;8.67;;;18.20;99.90;;;;;;4997897;28;20426;-71
2023/06/25 01:04:46;;;;;;;10.00;8.57;;;18.30;99.90;;;;;;4996433;28;20977;-71
2023/06/25 01:07:17;;;;;;;9.87;8.87;;;18.20;99.90;;;;;;5001400;28;20853;-71
2023/06/25 01:09:47;;;;;;;9.50;8.50;;;18.20;99.90;;;;;;5001680;28;20511;-71
2023/06/25 01:12:14;;;;;;;14.23;9.23;;;18.20;99.90;;;;;;5007717;28;20516;-70
2023/06/25 01:14:41;;;;;;;11.43;9.03;;;18.10;99.90;;;;;;4994881;28;20564;-70
2023/06/25 01:17:09;;;;;;;12.87;9.70;;;18.10;99.90;;;;;;5001047;28;20486;-71
2023/06/25 01:19:35;;;;;;;11.17;8.50;;;18.00;99.90;;;;;;4998083;28;20463;-71
2023/06/25 01:22:03;;;;;;;13.97;9.50;;;18.00;99.90;;;;;;5007106;28;20458;-70
2023/06/25 01:24:34;;;;;;;10.67;9.13;;;18.00;99.90;;;;;;5008517;28;20469;-70
2023/06/25 01:27:02;;;;;;;14.73;9.30;;;18.00;99.90;;;;;;5004959;28;20499;-70
2023/06/25 01:29:29;;;;;;;14.23;10.10;;;17.90;99.90;;;;;;5003316;28;20458;-71
2023/06/25 01:31:57;;;;;;;10.93;9.77;;;17.90;99.90;;;;;;5003949;28;20493;-70
2023/06/25 01:34:24;;;;;;;9.60;8.60;;;17.80;99.90;;;;;;5007903;28;20540;-71
2023/06/25 01:36:52;;;;;;;12.80;9.07;;;17.70;99.90;;;;;;4997586;28;20485;-71
2023/06/25 01:39:19;;;;;;;14.87;8.97;;;17.70;99.90;;;;;;5009205;28;20521;-71
2023/06/25 01:41:48;;;;;;;10.90;9.80;;;17.60;99.90;;;;;;5009152;28;21284;-70
2023/06/25 01:44:17;;;;;;;10.00;9.00;;;17.60;99.90;;;;;;5008562;28;20474;-70
2023/06/25 01:46:44;;;;;;;12.63;9.63;;;17.60;99.90;;;;;;5003776;28;21042;-71
2023/06/25 01:49:11;;;;;;;12.80;10.10;;;17.50;99.90;;;;;;4992330;28;20486;-71
2023/06/25 01:51:38;;;;;;;11.23;9.90;;;17.50;99.90;;;;;;5002233;28;20516;-72
2023/06/25 01:54:04;;;;;;;12.80;10.23;;;17.50;99.90;;;;;;5007966;28;20461;-72
2023/06/25 01:56:31;;;;;;;12.83;9.47;;;17.50;99.90;;;;;;4998395;28;20486;-72
2023/06/25 01:58:59;;;;;;;14.27;10.17;;;17.40;99.90;;;;;;4997370;28;20973;-71
2023/06/25 02:01:26;;;;;;;13.73;10.03;;;17.40;99.90;;;;;;5005524;28;20480;-71
2023/06/25 02:03:52;;;;;;;13.13;10.00;;;17.30;99.90;;;;;;5003894;28;20532;-72
2023/06/25 02:06:19;;;;;;;12.43;9.80;;;17.30;99.90;;;;;;5000885;28;20499;-72
2023/06/25 02:08:46;;;;;;;12.03;10.03;;;17.30;99.90;;;;;;4999242;28;20459;-72
2023/06/25 02:11:12;;;;;;;10.00;8.93;;;17.20;99.90;;;;;;5000117;28;20467;-72
2023/06/25 02:13:39;;;;;;;12.77;9.40;;;17.20;99.90;;;;;;5000264;28;20479;-71
2023/06/25 02:16:07;;;;;;;14.67;10.03;;;17.20;99.90;;;;;;5000751;28;20451;-71
2023/06/25 02:18:34;;;;;;;11.53;9.60;;;17.20;99.90;;;;;;5011216;28;20450;-71
2023/06/25 02:21:00;;;;;;;13.40;9.17;;;17.20;99.90;;;;;;5004556;28;20510;-71
2023/06/25 02:23:27;;;;;;;12.93;8.70;;;17.20;99.90;;;;;;5011867;28;21030;-71
2023/06/25 02:25:54;;;;;;;13.73;9.30;;;17.20;99.90;;;;;;5012297;28;20425;-72
2023/06/25 02:28:20;;;;;;;10.50;9.47;;;17.20;99.90;;;;;;5005600;28;20920;-72
2023/06/25 02:30:47;;;;;;;19.83;9.80;;;17.20;99.90;;;;;;5005786;28;20496;-72
2023/06/25 02:33:15;;;;;;;12.57;8.90;;;17.20;99.90;;;;;;5003239;28;21026;-72
2023/06/25 02:35:43;;;;;;;12.60;9.30;;;17.20;99.90;;;;;;5006051;28;20429;-71
2023/06/25 02:38:10;;;;;;;10.97;9.33;;;17.20;99.90;;;;;;5003727;28;20548;-71
2023/06/25 02:40:36;;;;;;;11.27;9.40;;;17.20;99.90;;;;;;5012298;28;20482;-71
2023/06/25 02:43:03;;;;;;;16.50;9.93;;;17.20;99.90;;;;;;5011932;28;20470;-71
2023/06/25 02:45:29;;;;;;;10.83;9.43;;;17.20;99.90;;;;;;5004256;28;20426;-71
2023/06/25 02:47:56;;;;;;;12.03;9.73;;;17.10;99.90;;;;;;5007011;28;20475;-71
2023/06/25 02:50:24;;;;;;;15.07;9.70;;;17.10;99.90;;;;;;5010694;28;20509;-71
2023/06/25 02:52:51;;;;;;;12.83;10.03;;;17.00;99.90;;;;;;5006283;28;20905;-71
2023/06/25 02:55:17;;;;;;;14.23;10.07;;;17.00;99.90;;;;;;5004158;28;20521;-71
2023/06/25 02:57:44;;;;;;;10.50;9.40;;;16.90;99.90;;;;;;5005299;28;21036;-71
2023/06/25 03:00:11;;;;;;;12.33;10.77;;;16.90;99.90;;;;;;5011534;28;20425;-71
2023/06/25 03:02:38;;;;;;;16.33;11.20;;;16.80;99.90;;;;;;5002445;28;20454;-71
2023/06/25 03:05:05;;;;;;;13.03;10.67;;;16.80;99.90;;;;;;5005536;28;20875;-71
2023/06/25 03:07:33;;;;;;;14.40;11.10;;;16.80;99.90;;;;;;5003461;28;20421;-71
2023/06/25 03:09:59;;;;;;;15.50;10.00;;;16.80;99.90;;;;;;5003455;28;21031;-71
2023/06/25 03:12:26;;;;;;;13.60;10.20;;;16.80;99.90;;;;;;5011084;28;20470;-71
2023/06/25 03:14:53;;;;;;;11.53;9.97;;;16.80;99.90;;;;;;5011181;28;20450;-71
2023/06/25 03:17:19;;;;;;;16.63;10.93;;;16.80;99.90;;;;;;5010204;28;20511;-71
2023/06/25 03:19:46;;;;;;;14.17;11.73;;;16.80;99.90;;;;;;5002218;28;20505;-71
2023/06/25 03:22:12;;;;;;;20.33;12.07;;;16.80;99.90;;;;;;5010402;28;20969;-71
2023/06/25 03:24:40;;;;;;;12.77;10.90;;;16.80;99.90;;;;;;4995781;28;20548;-71
2023/06/25 03:27:07;;;;;;;12.67;11.10;;;16.80;99.90;;;;;;5011248;28;20429;-71
2023/06/25 03:29:34;;;;;;;16.60;11.87;;;16.80;99.90;;;;;;5010278;28;20523;-71
2023/06/25 03:32:00;;;;;;;19.40;10.60;;;16.80;99.90;;;;;;5005998;28;20450;-71
2023/06/25 03:34:27;;;;;;;15.27;12.17;;;16.80;99.90;;;;;;5007066;28;20457;-71
2023/06/25 03:36:53;;;;;;;14.63;11.50;;;16.80;99.90;;;;;;5002797;28;20472;-71
2023/06/25 03:39:21;;;;;;;15.90;12.00;;;16.80;99.90;;;;;;5008760;28;20429;-71
2023/06/25 03:41:49;;;;;;;17.63;12.00;;;16.80;99.90;;;;;;5008426;28;20472;-71
2023/06/25 03:44:15;;;;;;;14.57;11.83;;;16.80;99.90;;;;;;5009125;28;20449;-71
2023/06/25 03:46:42;;;;;;;13.30;11.13;;;16.90;99.90;;;;;;5010783;28;20429;-72
2023/06/25 03:49:09;;;;;;;14.70;12.63;;;16.80;99.90;;;;;;5010866;28;20424;-72
2023/06/25 03:51:35;;;;;;;15.10;12.77;;;16.80;99.90;;;;;;5005352;28;20435;-72
2023/06/25 03:54:02;;;;;;;16.27;11.70;;;16.80;99.90;;;;;;5001919;28;20552;-71
2023/06/25 03:56:28;;;;;;;18.03;12.83;;;16.80;99.90;;;;;;4999138;28;20420;-72
2023/06/25 03:58:56;;;;;;;14.30;11.77;;;16.80;99.90;;;;;;5005079;28;20464;-71
2023/06/25 04:01:23;;;;;;;17.67;11.93;;;16.80;99.90;;;;;;5008537;28;20507;-72
2023/06/25 04:03:50;;;;;;;17.27;13.10;;;16.90;99.90;;;;;;4990672;28;20446;-71
2023/06/25 04:06:16;;;;;;;18.17;12.50;;;16.90;99.90;;;;;;5006786;28;20429;-72
2023/06/25 04:08:43;;;;;;;19.50;12.93;;;16.90;99.90;;;;;;4997277;28;20484;-72
2023/06/25 04:11:09;;;;;;;17.80;12.80;;;17.00;99.90;;;;;;5004294;28;20437;-71
2023/06/25 04:13:36;;;;;;;22.90;11.70;;;17.00;99.90;;;;;;5002018;28;20436;-72
2023/06/25 04:16:06;;;;;;;17.00;12.60;;;17.00;99.90;;;;;;5010262;28;20475;-72
2023/06/25 04:18:33;;;;;;;13.50;11.97;;;17.10;99.90;;;;;;5001966;28;20492;-72
2023/06/25 04:21:00;;;;;;;15.00;12.00;;;17.10;99.90;;;;;;5010102;28;20946;-72
2023/06/25 04:23:27;;;;;;;16.00;12.00;;;17.20;99.90;;;;;;5006502;28;20532;-71
2023/06/25 04:25:53;;;;;;;16.80;12.83;;;17.20;99.90;;;;;;5004232;28;20462;-72
2023/06/25 04:28:20;;;;;;;16.57;12.87;;;17.30;99.90;;;;;;5008496;28;20467;-72
2023/06/25 04:30:46;;;;;;;16.10;12.77;;;17.30;99.90;;;;;;5004242;28;20433;-71
2023/06/25 04:33:15;;;;;;;20.47;13.90;;;17.40;99.90;;;;;;5008951;28;20528;-71
2023/06/25 04:35:41;;;;;;;19.20;14.03;;;17.40;99.90;;;;;;5009790;28;20454;-72
2023/06/25 04:38:08;;;;;;;15.03;12.90;;;17.50;99.90;;;;;;5005408;28;20519;-72
2023/06/25 04:40:34;;;;;;;17.70;13.17;;;17.50;99.90;;;;;;5009152;28;20451;-72
2023/06/25 04:43:01;;;;;;;16.70;13.70;;;17.60;99.90;;;;;;5003689;28;20977;-71
2023/06/25 04:45:28;;;;;;;13.83;12.43;;;17.70;99.90;;;;;;5007639;28;20556;-72
2023/06/25 04:47:54;;;;;;;18.50;12.70;;;17.80;99.90;;;;;;5004063;28;20444;-71
2023/06/25 04:50:23;;;;;;;15.07;12.83;;;17.80;99.90;;;;;;4998881;28;20849;-72
2023/06/25 04:52:49;;;;;;;15.23;12.90;;;17.90;99.90;;;;;;5004501;28;20444;-71
2023/06/25 04:55:16;;;;;;;16.77;12.93;;;18.00;99.90;;;;;;5009165;28;20421;-72
2023/06/25 04:57:43;;;;;;;18.57;13.93;;;18.10;99.90;;;;;;4994247;28;20511;-71
2023/06/25 05:00:10;;;;;;;16.33;12.23;;;18.20;99.90;;;;;;5008164;28;20458;-71
2023/06/25 05:02:37;;;;;;;16.37;13.17;;;18.30;99.90;;;;;;4999960;28;20428;-70
2023/06/25 05:05:04;;;;;;;16.70;12.70;;;18.40;99.90;;;;;;5002759;28;20809;-71
2023/06/25 05:07:32;;;;;;;16.33;13.43;;;18.50;99.90;;;;;;5008445;28;20505;-71
2023/06/25 05:09:59;;;;;;;19.13;12.47;;;18.50;99.90;;;;;;5001642;28;20687;-71
2023/06/25 05:12:25;;;;;;;19.37;13.53;;;18.60;99.90;;;;;;5008960;28;20466;-71
2023/06/25 05:14:52;;;;;;;17.50;12.70;;;18.70;99.90;;;;;;5008247;28;20931;-71
2023/06/25 05:17:19;;;;;;;15.87;11.90;;;18.80;99.90;;;;;;5008882;28;20482;-71
2023/06/25 05:19:45;;;;;;;16.80;12.20;;;18.90;99.90;;;;;;5008484;28;20975;-71
2023/06/25 05:22:12;;;;;;;14.20;12.17;;;19.00;99.90;;;;;;5009218;28;20544;-70
2023/06/25 05:24:40;;;;;;;14.57;11.67;;;19.20;99.90;;;;;;5009024;28;20458;-70
2023/06/25 05:27:07;;;;;;;13.63;11.20;;;19.30;99.90;;;;;;5000973;28;20432;-70
2023/06/25 05:29:34;;;;;;;18.17;10.87;;;19.40;99.90;;;;;;5008441;28;20998;-74
2023/06/25 05:32:00;;;;;;;15.07;10.90;;;19.60;99.90;;;;;;5003706;28;20501;-74
2023/06/25 05:34:27;;;;;;;13.33;10.90;;;19.80;99.90;;;;;;5004749;28;20559;-74
2023/06/25 05:36:54;;;;;;;14.40;10.60;;;20.10;99.90;;;;;;5003773;28;21009;-75
2023/06/25 05:39:20;;;;;;;13.17;9.47;;;20.30;99.90;;;;;;5000925;28;20486;-75
2023/06/25 05:41:48;;;;;;;11.00;9.80;;;20.50;99.90;;;;;;5000441;28;20462;-75
2023/06/25 05:44:15;;;;;;;12.00;10.23;;;20.70;99.90;;;;;;5004501;28;20967;-75
2023/06/25 05:46:41;;;;;;;10.87;9.60;;;20.90;99.90;;;;;;5004966;28;20553;-76
2023/06/25 05:49:10;;;;;;;12.07;9.70;;;21.10;99.90;;;;;;5003959;28;20492;-75
2023/06/25 05:51:37;;;;;;;11.10;9.63;;;21.20;99.90;;;;;;5012099;28;20458;-75
2023/06/25 05:54:03;;;;;;;9.80;8.63;;;21.30;99.90;;;;;;5004157;28;20558;-75
2023/06/25 05:56:30;;;;;;;13.57;10.10;;;21.30;99.90;;;;;;5010778;28;21031;-76
2023/06/25 05:58:58;;;;;;;10.23;8.97;;;21.60;99.90;;;;;;5008983;28;20498;-75
2023/06/25 06:01:25;;;;;;;13.50;9.37;;;21.80;99.90;;;;;;5003329;28;20454;-75
2023/06/25 06:03:52;;;;;;;9.00;8.10;;;21.90;99.90;;;;;;5004939;28;20506;-75
2023/06/25 06:06:19;;;;;;;13.53;9.73;;;22.00;99.90;;;;;;5006823;28;20451;-75
2023/06/25 06:08:46;;;;;;;12.37;8.30;;;22.20;99.90;;;;;;5008381;28;20443;-75
2023/06/25 06:11:12;;;;;;;9.80;7.50;;;22.30;99.90;;;;;;5004866;28;20527;-75
2023/06/25 06:13:39;;;;;;;8.77;7.37;;;22.40;99.90;;;;;;5002443;28;20986;-76
2023/06/25 06:16:07;;;;;;;12.87;7.80;;;22.40;99.90;;;;;;5002228;28;20943;-76
2023/06/25 06:18:33;;;;;;;7.90;7.10;;;22.50;99.90;;;;;;5003875;28;20541;-76
2023/06/25 06:21:00;;;;;;;10.27;7.40;;;22.60;99.90;;;;;;5012259;28;20935;-75
2023/06/25 06:23:27;;;;;;;7.93;7.13;;;22.70;99.90;;;;;;5002534;28;21116;-76
2023/06/25 06:25:53;;;;;;;8.97;7.10;;;22.50;99.90;;;;;;5012215;28;20947;-76
2023/06/25 06:28:20;;;;;;;8.07;6.70;;;22.40;99.90;;;;;;5011863;28;20497;-76
2023/06/25 06:30:47;;;;;;;13.13;7.40;;;22.20;99.90;;;;;;5005744;28;20461;-76
2023/06/25 06:33:15;;;;;;;8.83;7.57;;;22.20;99.90;;;;;;5011918;28;20481;-76
2023/06/25 06:35:41;;;;;;;8.97;6.27;;;22.40;99.90;;;;;;5008239;28;20443;-76
2023/06/25 06:38:08;;;;;;;8.70;6.90;;;22.50;99.90;;;;;;5006255;28;20497;-77
2023/06/25 06:40:35;;;;;;;8.03;6.60;;;22.70;99.90;;;;;;5009239;28;20936;-76
2023/06/25 06:43:01;;;;;;;8.37;6.00;;;22.80;99.90;;;;;;4993429;28;20569;-76
2023/06/25 06:45:28;;;;;;;7.33;6.33;;;23.10;99.90;;;;;;5002121;28;20868;-76
2023/06/25 06:47:54;;;;;;;14.00;7.80;;;23.10;99.90;;;;;;4997165;28;20508;-75
2023/06/25 06:50:22;;;;;;;8.90;6.57;;;23.20;99.90;;;;;;4997147;28;20502;-75
2023/06/25 06:52:49;;;;;;;9.83;6.40;;;23.30;99.90;;;;;;4999088;28;20509;-75
2023/06/25 06:55:16;;;;;;;6.97;6.27;;;23.50;99.90;;;;;;5007121;28;20481;-75
2023/06/25 06:57:42;;;;;;;7.23;6.00;;;23.60;99.90;;;;;;4999632;28;20976;-76
2023/06/25 07:00:10;;;;;;;8.63;5.97;;;23.60;99.90;;;;;;5011253;28;20504;-75
2023/06/25 07:02:36;;;;;;;7.67;6.23;;;23.80;99.90;;;;;;4999875;28;20455;-76
2023/06/25 07:05:03;;;;;;;8.00;5.93;;;24.00;99.90;;;;;;5005670;28;20496;-76
2023/06/25 07:07:31;;;;;;;10.20;6.63;;;23.90;99.90;;;;;;5010882;28;20455;-76
2023/06/25 07:09:58;;;;;;;6.83;6.00;;;23.90;99.90;;;;;;4998191;28;20459;-76
2023/06/25 07:12:25;;;;;;;7.57;6.60;;;24.10;99.90;;;;;;5007930;28;20513;-76
2023/06/25 07:14:52;;;;;;;14.63;6.00;;;24.10;99.90;;;;;;5011228;28;20458;-76
2023/06/25 07:17:18;;;;;;;7.67;5.90;;;24.20;99.90;;;;;;5008940;28;20454;-75
2023/06/25 07:19:45;;;;;;;9.60;7.13;;;24.30;99.90;;;;;;5005503;28;20632;-76
2023/06/25 07:22:12;;;;;;;9.57;6.47;;;24.40;99.90;;;;;;5006880;28;20450;-76
2023/06/25 07:24:40;;;;;;;6.80;6.20;;;24.30;99.90;;;;;;5002998;28;20904;-76
2023/06/25 07:27:06;;;;;;;9.33;6.30;;;24.50;99.90;;;;;;5010670;28;20848;-75
2023/06/25 07:29:33;;;;;;;10.80;6.87;;;24.60;99.90;;;;;;4992505;28;20493;-76
2023/06/25 07:32:00;;;;;;;7.67;6.87;;;24.90;99.90;;;;;;5003962;28;20450;-75
2023/06/25 07:34:26;;;;;;;7.47;6.10;;;24.80;99.90;;;;;;5003276;28;20490;-76
2023/06/25 07:36:53;;;;;;;8.37;6.30;;;24.90;99.90;;;;;;4991488;28;20455;-76
2023/06/25 07:39:25;;;;;;;9.37;6.80;;;24.80;99.90;;;;;;4989693;28;20522;-76
2023/06/25 07:41:54;;;;;;;8.07;6.50;;;24.80;99.90;;;;;;5002607;28;20541;-75
2023/06/25 07:44:21;;;;;;;10.87;6.90;;;24.70;99.90;;;;;;5002746;28;20470;-76
2023/06/25 07:46:47;;;;;;;10.63;6.90;;;24.80;99.90;;;;;;5005487;28;20512;-76
2023/06/25 07:49:14;;;;;;;8.40;6.57;;;24.80;99.90;;;;;;5008442;28;20982;-75
2023/06/25 07:51:43;;;;;;;8.67;6.60;;;24.90;99.90;;;;;;5008781;28;20481;-75
2023/06/25 07:54:10;;;;;;;8.00;6.70;;;24.90;99.90;;;;;;5002218;28;20471;-75
2023/06/25 07:56:37;;;;;;;6.47;5.87;;;25.00;99.90;;;;;;4989237;28;20506;-74
2023/06/25 07:59:04;;;;;;;13.43;6.23;;;25.20;99.90;;;;;;5004574;28;20502;-74
2023/06/25 08:01:31;;;;;;;8.57;7.40;;;25.40;99.90;;;;;;5008268;28;20967;-74
2023/06/25 08:03:59;;;;;;;7.03;6.33;;;25.40;99.90;;;;;;5004004;28;20574;-74
2023/06/25 08:06:26;;;;;;;7.67;6.90;;;25.70;99.90;;;;;;4996887;28;20528;-74
2023/06/25 08:08:52;;;;;;;8.77;6.60;;;26.00;99.90;;;;;;5000196;28;20505;-73
2023/06/25 08:11:19;;;;;;;12.03;6.83;;;26.30;99.90;;;;;;5008774;28;20466;-73
2023/06/25 08:13:46;;;;;;;6.57;5.90;;;26.40;99.90;;;;;;5001174;28;20528;-73
2023/06/25 08:16:14;;;;;;;9.67;6.20;;;26.30;99.90;;;;;;5004224;28;20450;-74
2023/06/25 08:18:40;;;;;;;8.50;7.07;;;26.30;99.90;;;;;;5001567;28;20544;-73
2023/06/25 08:21:08;;;;;;;14.50;7.23;;;26.30;99.90;;;;;;5004469;28;20443;-74
2023/06/25 08:23:35;;;;;;;7.30;6.53;;;26.30;99.90;;;;;;5006530;28;20484;-73
2023/06/25 08:26:02;;;;;;;7.97;6.30;;;26.50;99.90;;;;;;5008072;28;20481;-74
2023/06/25 08:28:29;;;;;;;11.90;6.57;;;26.50;99.90;;;;;;5008701;28;20961;-75
2023/06/25 08:30:55;;;;;;;8.27;6.50;;;26.40;99.90;;;;;;5001377;28;20470;-73
2023/06/25 08:33:23;;;;;;;7.77;6.03;;;26.30;99.90;;;;;;5003631;28;20525;-73
2023/06/25 08:35:50;;;;;;;8.73;5.90;;;26.50;99.90;;;;;;5008847;28;20512;-73
2023/06/25 08:38:19;;;;;;;10.20;6.47;;;26.80;99.90;;;;;;5009073;28;20496;-73
2023/06/25 08:40:47;;;;;;;7.30;6.10;;;27.00;99.90;;;;;;5007877;28;20537;-73
2023/06/25 08:43:14;;;;;;;6.10;5.50;;;26.90;99.90;;;;;;5003048;28;20663;-73
2023/06/25 08:45:42;;;;;;;6.73;6.13;;;26.80;99.90;;;;;;5004183;28;20541;-72
2023/06/25 08:48:12;;;;;;;7.53;5.70;;;26.80;99.90;;;;;;5001156;28;20990;-74
2023/06/25 08:50:41;;;;;;;8.83;5.80;;;27.10;99.90;;;;;;5008463;28;20672;-74
2023/06/25 08:53:09;;;;;;;6.80;5.83;;;27.20;99.90;;;;;;5008010;28;20469;-75
2023/06/25 08:55:36;;;;;;;6.60;6.00;;;27.30;99.90;;;;;;5007633;28;20456;-75
2023/06/25 08:58:03;;;;;;;12.33;6.10;;;27.20;99.90;;;;;;5008100;28;20457;-74
2023/06/25 09:00:29;;;;;;;10.13;5.45;;;27.20;99.90;;;;;;5007941;28;20851;-73
2023/06/25 09:02:56;;;;;;;5.90;5.30;;;27.20;99.90;;;;;;4999863;28;20601;-74
2023/06/25 09:05:26;;;;;;;8.33;5.97;;;27.20;99.90;;;;;;5002650;28;20459;-74
2023/06/25 09:07:55;;;;;;;8.70;5.90;;;27.20;99.90;;;;;;4995908;28;21007;-75
2023/06/25 09:10:22;;;;;;;6.13;5.63;;;27.60;99.90;;;;;;4996318;28;20454;-73
2023/06/25 09:12:49;;;;;;;7.20;5.90;;;27.70;99.90;;;;;;5008293;28;20545;-74
2023/06/25 09:15:20;;;;;;;12.00;5.80;;;27.80;99.90;;;;;;5007517;28;20873;-75
2023/06/25 09:17:46;;;;;;;6.80;5.63;;;28.00;99.90;;;;;;5002578;28;20816;-74
2023/06/25 09:20:14;;;;;;;7.70;5.60;;;28.20;99.90;;;;;;5006621;28;20462;-72
2023/06/25 09:22:50;;;;;;;12.40;6.23;;;28.10;99.90;;;;;;5014642;28;20531;-75
2023/06/25 09:25:18;;;;;;;8.83;5.90;;;28.10;99.90;;;;;;5014162;28;20833;-75
2023/06/25 09:27:45;;;;;;;7.87;5.87;;;28.10;99.90;;;;;;5015256;28;20874;-74
2023/06/25 09:30:13;;;;;;;7.57;5.97;;;28.30;99.90;;;;;;5015204;28;20469;-74
2023/06/25 09:32:48;;;;;;;8.75;6.22;;;28.60;99.90;;;;;;5012166;28;20444;-74
2023/06/25 09:35:19;;;;;;;6.20;5.00;;;28.70;99.90;;;;;;5009165;28;20832;-76
2023/06/25 09:37:46;;;;;;;7.70;6.20;;;28.80;99.90;;;;;;5014423;28;20544;-75
2023/06/25 09:40:13;;;;;;;6.33;5.20;;;28.90;99.90;;;;;;5012243;28;21134;-74
2023/06/25 09:42:43;;;;;;;7.28;5.35;;;28.80;99.90;;;;;;5008671;28;20492;-76
2023/06/25 09:45:13;;;;;;;9.02;5.47;;;28.90;99.90;;;;;;5005599;28;20442;-74
2023/06/25 09:47:42;;;;;;;5.70;5.10;;;29.00;99.90;;;;;;5011620;28;20528;-75
2023/06/25 09:50:14;;;;;;;5.53;4.93;;;28.80;99.90;;;;;;5013142;28;20518;-71
2023/06/25 09:52:43;;;;;;;8.30;5.23;;;29.00;99.90;;;;;;5009217;28;20227;-75
2023/06/25 09:55:10;;;;;;;7.67;5.90;;;29.20;99.90;;;;;;5010724;28;20514;-74
2023/06/25 09:57:37;;;;;;;5.67;5.10;;;29.30;99.90;;;;;;5014025;28;20452;-75
2023/06/25 10:00:08;;;;;;;5.50;4.35;;;29.50;99.90;;;;;;5013295;28;20445;-77
2023/06/25 10:02:35;;;;;;;7.30;5.00;;;29.40;99.90;;;;;;5001171;28;20456;-77
2023/06/25 10:05:02;;;;;;;6.63;5.00;;;29.10;99.90;;;;;;4993753;28;20921;-72
2023/06/25 10:07:30;;;;;;;5.53;4.75;;;29.10;99.90;;;;;;4995131;28;20448;-72
2023/06/25 10:09:57;;;;;;;7.33;5.50;;;29.30;99.90;;;;;;5013394;28;20227;-73
2023/06/25 10:12:24;;;;;;;15.50;6.20;;;29.70;99.90;;;;;;5014079;28;20481;-73
2023/06/25 10:14:51;;;;;;;5.47;4.97;;;29.70;99.90;;;;;;5014418;28;20462;-72
2023/06/25 10:17:20;;;;;;;6.20;5.57;;;30.00;99.90;;;;;;5013247;28;21025;-72
2023/06/25 10:19:52;;;;;;;5.03;4.60;;;30.30;99.90;;;;;;5013916;28;20524;-73
2023/06/25 10:22:23;;;;;;;5.87;5.30;;;30.30;99.90;;;;;;5013824;28;21023;-72
2023/06/25 10:24:51;;;;;;;9.40;5.43;;;30.20;99.90;;;;;;5014105;28;20500;-73
2023/06/25 10:27:29;;;;;;;9.13;5.37;;;30.00;99.90;;;;;;5013249;28;20450;-73
2023/06/25 10:29:57;;;;;;;8.23;4.97;;;29.80;99.90;;;;;;5012284;28;20481;-73
2023/06/25 10:32:27;;;;;;;8.40;5.20;;;30.00;99.90;;;;;;5009988;28;20521;-73
2023/06/25 10:34:54;;;;;;;5.70;5.10;;;30.10;99.90;;;;;;5009754;28;20504;-73
2023/06/25 10:37:22;;;;;;;6.00;5.38;;;29.90;99.90;;;;;;5009850;28;20451;-73
2023/06/25 10:39:48;;;;;;;5.50;5.00;;;29.50;99.90;;;;;;4997338;28;20668;-76
2023/06/25 10:42:15;;;;;;;6.20;5.30;;;29.40;99.90;;;;;;4995603;28;20514;-75
2023/06/25 10:44:42;;;;;;;5.97;5.13;;;29.50;99.90;;;;;;4999995;28;20231;-75
2023/06/25 10:47:10;;;;;;;5.10;4.70;;;29.60;99.90;;;;;;5004606;28;20463;-71
2023/06/25 10:49:38;;;;;;;6.70;5.23;;;30.00;99.90;;;;;;5010005;28;20504;-72
2023/06/25 10:52:06;;;;;;;5.73;5.13;;;30.20;99.90;;;;;;5010157;28;20454;-72
2023/06/25 10:54:33;;;;;;;10.17;5.40;;;30.10;99.90;;;;;;5001099;28;20447;-75
2023/06/25 10:57:07;;;;;;;5.80;5.13;;;30.10;99.90;;;;;;5009673;28;20450;-73
2023/06/25 10:59:33;;;;;;;5.73;5.13;;;30.20;99.90;;;;;;5010094;28;20583;-74
2023/06/25 11:02:10;;;;;;;6.27;5.67;;;30.40;99.90;;;;;;5002088;28;20450;-74
2023/06/25 11:04:38;;;;;;;7.57;5.40;;;30.50;99.90;;;;;;4995767;28;20544;-74
2023/06/25 11:07:05;;;;;;;7.80;5.03;;;30.40;99.90;;;;;;5003778;28;20446;-73
2023/06/25 11:09:31;;;;;;;6.80;4.90;;;30.30;99.90;;;;;;4992566;28;20499;-74
2023/06/25 11:11:58;;;;;;;8.57;5.50;;;30.20;99.90;;;;;;4990941;28;20444;-73
2023/06/25 11:14:25;;;;;;;6.20;5.43;;;30.00;99.90;;;;;;4997276;28;20285;-72
2023/06/25 11:16:51;;;;;;;5.80;5.13;;;29.90;99.90;;;;;;5006145;28;20455;-73
2023/06/25 11:19:18;;;;;;;6.53;5.93;;;30.10;99.90;;;;;;4998942;28;21876;-72
2023/06/25 11:21:46;;;;;;;7.17;5.80;;;30.20;99.90;;;;;;5008038;28;20942;-72
2023/06/25 11:24:14;;;;;;;10.00;6.93;;;30.30;99.90;;;;;;5003100;28;20540;-71
2023/06/25 11:26:41;;;;;;;9.77;4.83;;;30.50;99.90;;;;;;5003018;28;20548;-72
2023/06/25 11:29:08;;;;;;;8.65;5.00;;;30.90;99.90;;;;;;4999670;28;20447;-70
2023/06/25 11:31:43;;;;;;;5.90;5.30;;;31.20;99.90;;;;;;4996455;28;20262;-71
2023/06/25 11:34:11;;;;;;;5.73;5.10;;;31.10;99.90;;;;;;5008588;28;20485;-71
2023/06/25 11:36:38;;;;;;;8.43;5.03;;;30.70;99.90;;;;;;5004439;28;20451;-72
2023/06/25 11:39:09;;;;;;;5.83;4.63;;;30.40;99.90;;;;;;5009551;28;20668;-71
2023/06/25 11:41:35;;;;;;;5.80;5.20;;;30.40;99.90;;;;;;5002064;28;20459;-71
2023/06/25 11:44:02;;;;;;;7.25;4.70;;;30.40;99.90;;;;;;5007459;28;20847;-71
2023/06/25 11:46:29;;;;;;;7.70;5.77;;;30.40;99.90;;;;;;5009187;28;20207;-71
2023/06/25 11:48:55;;;;;;;5.20;4.70;;;30.50;99.90;;;;;;5008788;28;20450;-71
2023/06/25 11:51:22;;;;;;;5.40;4.97;;;30.80;99.90;;;;;;5004216;28;20830;-71
2023/06/25 11:53:49;;;;;;;5.13;4.73;;;31.10;99.90;;;;;;5004820;28;20470;-70
2023/06/25 11:56:17;;;;;;;5.67;5.17;;;31.40;99.90;;;;;;5003377;28;20532;-71
2023/06/25 11:58:44;;;;;;;9.57;5.37;;;31.30;99.90;;;;;;5009111;28;20462;-71
2023/06/25 12:01:11;;;;;;;7.30;5.17;;;31.40;99.90;;;;;;5009008;28;20486;-71
2023/06/25 12:03:38;;;;;;;6.57;5.97;;;31.30;99.90;;;;;;4997363;28;20491;-70
2023/06/25 12:06:06;;;;;;;5.80;4.90;;;31.10;99.90;;;;;;5002515;28;20927;-71
2023/06/25 12:08:33;;;;;;;5.83;5.23;;;31.00;99.90;;;;;;5001620;28;20458;-70
2023/06/25 12:11:00;;;;;;;7.80;5.83;;;30.90;99.90;;;;;;4996058;28;20459;-71
2023/06/25 12:13:28;;;;;;;5.97;5.10;;;30.90;99.90;;;;;;4994847;28;21339;-70
2023/06/25 12:15:54;;;;;;;5.93;5.00;;;30.80;99.90;;;;;;5008519;28;20521;-71
2023/06/25 12:18:22;;;;;;;6.83;5.13;;;30.80;99.90;;;;;;5009067;28;20449;-71
2023/06/25 12:20:49;;;;;;;5.80;5.30;;;31.00;99.90;;;;;;5009193;28;20489;-70
2023/06/25 12:23:15;;;;;;;12.77;6.20;;;31.00;99.90;;;;;;5003333;28;20947;-71
2023/06/25 12:25:42;;;;;;;4.80;4.30;;;30.90;99.90;;;;;;5007434;28;20520;-72
2023/06/25 12:28:09;;;;;;;6.33;5.47;;;31.20;99.90;;;;;;5008674;28;20289;-73
2023/06/25 12:30:36;;;;;;;6.90;5.70;;;31.40;99.90;;;;;;5007735;28;20443;-73
2023/06/25 12:33:03;;;;;;;5.50;5.00;;;31.70;99.90;;;;;;5001240;28;20477;-73
2023/06/25 12:35:30;;;;;;;6.17;5.40;;;31.90;99.20;;;;;;5009029;28;20446;-72
2023/06/25 12:37:56;;;;;;;6.13;5.53;;;32.10;99.90;;;;;;5007908;28;20446;-73